createdAt,value
2023-01-13T00:01:53.243Z,3.10
2023-01-13T00:04:23.884Z,3.00
2023-01-13T00:06:54.581Z,2.40
2023-01-13T00:09:25.369Z,3.00
2023-01-13T00:11:56.360Z,3.10
2023-01-13T00:14:29.969Z,4.30
2023-01-13T00:17:00.592Z,3.20
2023-01-13T00:19:31.339Z,3.80
2023-01-13T00:22:01.960Z,4.50
2023-01-13T00:24:32.488Z,3.30
2023-01-13T00:27:03.436Z,3.20
2023-01-13T00:29:34.061Z,4.10
2023-01-13T00:32:05.414Z,4.70
2023-01-13T00:34:36.036Z,3.40
2023-01-13T00:37:06.673Z,4.70
2023-01-13T00:39:37.405Z,4.30
2023-01-13T00:42:25.854Z,3.00
2023-01-13T00:44:56.495Z,4.70
2023-01-13T00:47:27.129Z,3.70
2023-01-13T00:49:57.861Z,3.90
2023-01-13T00:52:28.488Z,2.60
2023-01-13T00:54:59.023Z,3.40
2023-01-13T00:57:29.659Z,5.10
2023-01-13T01:00:00.288Z,5.40
2023-01-13T01:02:31.013Z,3.40
2023-01-13T01:05:01.751Z,3.50
2023-01-13T01:07:32.587Z,3.50
2023-01-13T01:10:03.299Z,2.20
2023-01-13T01:12:35.592Z,3.00
2023-01-13T01:15:10.092Z,3.50
2023-01-13T01:17:40.651Z,2.90
2023-01-13T01:20:13.539Z,3.30
2023-01-13T01:22:44.068Z,3.60
2023-01-13T01:25:14.693Z,3.60
2023-01-13T01:27:45.327Z,4.90
2023-01-13T01:30:17.694Z,3.60
2023-01-13T01:32:48.227Z,3.90
2023-01-13T01:35:19.083Z,3.30
2023-01-13T01:37:49.585Z,3.10
2023-01-13T01:40:20.739Z,3.70
2023-01-13T01:43:08.884Z,3.30
2023-01-13T01:45:39.521Z,3.00
2023-01-13T01:48:11.788Z,3.10
2023-01-13T01:50:42.932Z,3.30
2023-01-13T01:53:18.685Z,3.90
2023-01-13T01:55:49.930Z,3.70
2023-01-13T01:58:24.450Z,6.30
2023-01-13T02:00:55.267Z,3.90
2023-01-13T02:03:26.703Z,4.30
2023-01-13T02:05:57.384Z,4.30
2023-01-13T02:08:28.412Z,3.50
2023-01-13T02:10:59.046Z,3.00
2023-01-13T02:13:31.215Z,4.90
2023-01-13T02:16:10.162Z,3.30
2023-01-13T02:18:54.495Z,4.20
2023-01-13T02:22:10.663Z,3.80
2023-01-13T02:27:58.556Z,3.30
2023-01-13T02:30:55.917Z,3.50
2023-01-13T02:33:40.467Z,2.90
2023-01-13T02:36:19.101Z,4.30
2023-01-13T02:38:54.843Z,3.80
2023-01-13T02:41:49.943Z,5.00
2023-01-13T02:44:29.283Z,2.60
2023-01-13T02:47:05.856Z,3.10
2023-01-13T02:49:40.952Z,2.70
2023-01-13T02:52:16.961Z,3.50
2023-01-13T02:54:54.146Z,3.10
2023-01-13T02:57:26.318Z,2.60
2023-01-13T02:59:58.232Z,3.80
2023-01-13T03:02:28.832Z,3.60
2023-01-13T03:05:01.306Z,3.40
2023-01-13T03:07:48.669Z,3.50
2023-01-13T03:10:29.552Z,2.60
2023-01-13T03:13:11.342Z,3.30
2023-01-13T03:15:49.778Z,6.80
2023-01-13T03:18:35.454Z,3.50
2023-01-13T03:21:10.646Z,3.50
2023-01-13T03:23:51.673Z,4.90
2023-01-13T03:26:31.445Z,4.30
2023-01-13T03:29:09.964Z,3.20
2023-01-13T03:31:47.835Z,3.00
2023-01-13T03:34:22.982Z,4.90
2023-01-13T03:36:57.016Z,3.20
2023-01-13T03:39:33.364Z,3.10
2023-01-13T03:42:08.691Z,5.50
2023-01-13T03:44:47.199Z,4.10
2023-01-13T03:47:28.600Z,5.50
2023-01-13T03:50:03.988Z,3.60
2023-01-13T03:52:37.812Z,3.30
2023-01-13T03:55:13.187Z,3.40
2023-01-13T03:57:48.724Z,4.20
2023-01-13T04:00:20.804Z,4.00
2023-01-13T04:02:56.075Z,4.20
2023-01-13T04:05:28.644Z,3.20
2023-01-13T04:08:11.233Z,4.70
2023-01-13T04:10:46.975Z,4.30
2023-01-13T04:13:22.865Z,4.20
2023-01-13T04:15:53.434Z,3.50
2023-01-13T04:18:27.700Z,5.30
2023-01-13T04:21:01.374Z,3.60
2023-01-13T04:23:32.737Z,4.20
2023-01-13T04:26:03.179Z,3.80
2023-01-13T04:28:35.030Z,3.80
2023-01-13T04:31:05.613Z,3.90
2023-01-13T04:33:36.709Z,4.30
2023-01-13T04:36:08.580Z,3.40
2023-01-13T04:38:39.214Z,2.60
2023-01-13T04:41:09.798Z,2.70
2023-01-13T04:43:40.297Z,2.70
2023-01-13T04:46:10.727Z,2.80
2023-01-13T04:48:41.317Z,3.50
2023-01-13T04:51:11.761Z,3.10
2023-01-13T04:53:42.212Z,4.10
2023-01-13T04:56:12.827Z,2.70
2023-01-13T04:58:43.317Z,3.70
2023-01-13T05:01:13.826Z,2.70
2023-01-13T05:03:44.458Z,3.60
2023-01-13T05:06:14.963Z,3.10
2023-01-13T05:08:45.455Z,3.50
2023-01-13T05:11:32.775Z,2.60
2023-01-13T05:14:20.752Z,4.70
2023-01-13T05:17:03.636Z,3.50
2023-01-13T05:19:35.959Z,4.40
2023-01-13T05:25:10.471Z,2.70
2023-01-13T05:27:40.959Z,3.60
2023-01-13T05:30:13.265Z,2.90
2023-01-13T05:32:43.728Z,5.80
2023-01-13T05:35:16.046Z,2.70
2023-01-13T05:37:47.328Z,2.60
2023-01-13T05:40:37.893Z,3.80
2023-01-13T05:43:24.873Z,3.70
2023-01-13T05:45:58.926Z,3.00
2023-01-13T05:48:32.884Z,2.40
2023-01-13T05:51:05.010Z,3.70
2023-01-13T05:53:35.878Z,5.70
2023-01-13T05:56:09.142Z,4.50
2023-01-13T05:58:39.710Z,3.40
2023-01-13T06:01:11.616Z,3.20
2023-01-13T06:03:42.139Z,3.60
2023-01-13T06:06:12.700Z,2.20
2023-01-13T06:08:43.567Z,2.60
2023-01-13T06:11:13.969Z,3.00
2023-01-13T06:13:44.447Z,2.90
2023-01-13T06:16:14.989Z,2.40
2023-01-13T06:18:45.488Z,3.50
2023-01-13T06:21:15.896Z,4.80
2023-01-13T06:23:46.396Z,3.70
2023-01-13T06:26:20.122Z,5.80
2023-01-13T06:28:51.406Z,2.40
2023-01-13T06:31:22.717Z,2.30
2023-01-13T06:33:57.425Z,3.10
2023-01-13T06:36:33.317Z,2.90
2023-01-13T06:39:05.328Z,2.30
2023-01-13T06:44:24.717Z,3.10
2023-01-13T06:46:55.236Z,3.20
2023-01-13T06:49:25.730Z,3.40
2023-01-13T06:51:56.165Z,4.40
2023-01-13T06:54:27.830Z,2.80
2023-01-13T06:56:58.511Z,2.50
2023-01-13T06:59:29.016Z,4.20
2023-01-13T07:01:59.513Z,3.70
2023-01-13T07:04:30.101Z,4.30
2023-01-13T07:07:00.933Z,3.80
2023-01-13T07:09:31.432Z,4.30
2023-01-13T07:12:01.914Z,7.00
2023-01-13T07:14:49.818Z,3.90
2023-01-13T07:17:25.371Z,4.20
2023-01-13T07:19:56.113Z,2.20
2023-01-13T07:22:26.551Z,3.20
2023-01-13T07:24:58.301Z,2.90
2023-01-13T07:27:28.726Z,4.10
2023-01-13T07:29:59.245Z,2.40
2023-01-13T07:32:29.801Z,3.90
2023-01-13T07:35:05.284Z,3.40
2023-01-13T07:37:39.311Z,3.30
2023-01-13T07:40:12.947Z,3.60
2023-01-13T07:43:00.748Z,3.30
2023-01-13T07:45:31.277Z,4.00
2023-01-13T07:48:01.801Z,3.80
2023-01-13T07:50:32.592Z,4.70
2023-01-13T07:53:03.111Z,3.00
2023-01-13T07:55:33.635Z,3.00
2023-01-13T07:58:04.102Z,3.80
2023-01-13T08:00:34.581Z,2.80
2023-01-13T08:03:05.564Z,2.10
2023-01-13T08:05:37.255Z,2.40
2023-01-13T08:08:08.341Z,3.40
2023-01-13T08:10:38.896Z,4.00
2023-01-13T08:13:20.124Z,3.60
2023-01-13T08:15:53.130Z,3.70
2023-01-13T08:18:24.287Z,2.20
2023-01-13T08:20:55.438Z,3.10
2023-01-13T08:23:26.159Z,3.70
2023-01-13T08:26:00.250Z,3.70
2023-01-13T08:28:31.146Z,2.80
2023-01-13T08:31:04.172Z,2.30
2023-01-13T08:33:35.033Z,3.30
2023-01-13T08:36:07.932Z,3.10
2023-01-13T08:38:39.372Z,3.20
2023-01-13T08:41:16.081Z,3.60
2023-01-13T08:43:46.511Z,3.00
2023-01-13T08:46:16.945Z,3.90
2023-01-13T08:48:47.370Z,2.90
2023-01-13T08:51:17.792Z,2.90
2023-01-13T08:53:48.208Z,4.40
2023-01-13T08:56:18.723Z,3.90
2023-01-13T08:58:50.408Z,3.50
2023-01-13T09:01:24.131Z,2.60
2023-01-13T09:03:55.450Z,3.10
2023-01-13T09:06:26.047Z,1.50
2023-01-13T09:08:56.490Z,2.90
2023-01-13T09:11:48.114Z,3.00
2023-01-13T09:14:21.813Z,2.60
2023-01-13T09:16:52.532Z,2.40
2023-01-13T09:19:22.962Z,2.40
2023-01-13T09:21:53.620Z,2.00
2023-01-13T09:24:24.745Z,2.50
2023-01-13T09:26:55.210Z,3.20
2023-01-13T09:29:25.805Z,3.10
2023-01-13T09:31:57.880Z,2.50
2023-01-13T09:34:51.621Z,2.40
2023-01-13T09:37:22.175Z,4.40
2023-01-13T09:39:52.948Z,3.50
2023-01-13T09:42:49.999Z,3.60
2023-01-13T09:45:23.580Z,3.70
2023-01-13T09:48:02.419Z,5.40
2023-01-13T09:50:41.848Z,4.70
2023-01-13T09:53:21.449Z,4.30
2023-01-13T09:55:52.997Z,3.50
2023-01-13T09:58:24.883Z,3.90
2023-01-13T10:01:07.686Z,3.30
2023-01-13T10:03:38.408Z,4.10
2023-01-13T10:06:16.738Z,3.80
2023-01-13T10:08:48.813Z,3.80
2023-01-13T10:14:17.480Z,3.00
2023-01-13T10:16:52.801Z,3.10
2023-01-13T10:19:27.733Z,4.00
2023-01-13T10:22:21.285Z,3.30
2023-01-13T10:25:20.684Z,4.50
2023-01-13T10:27:54.107Z,3.30
2023-01-13T10:30:31.699Z,3.40
2023-01-13T10:33:07.346Z,3.10
2023-01-13T10:35:56.834Z,3.00
2023-01-13T10:38:29.933Z,3.70
2023-01-13T10:41:02.199Z,2.80
2023-01-13T10:43:33.408Z,3.40
2023-01-13T10:46:06.886Z,5.00
2023-01-13T10:48:41.038Z,4.00
2023-01-13T10:51:26.854Z,3.50
2023-01-13T10:54:01.120Z,3.00
2023-01-13T10:56:34.085Z,4.00
2023-01-13T10:59:18.512Z,3.70
2023-01-13T11:02:03.823Z,3.50
2023-01-13T11:04:40.000Z,3.00
2023-01-13T11:07:28.227Z,5.30
2023-01-13T11:10:22.106Z,3.80
2023-01-13T11:12:59.866Z,3.20
2023-01-13T11:15:40.966Z,6.90
2023-01-13T11:18:19.435Z,4.60
2023-01-13T11:20:52.719Z,5.60
2023-01-13T11:23:27.923Z,5.50
2023-01-13T11:26:03.708Z,3.20
2023-01-13T11:28:45.277Z,3.30
2023-01-13T11:31:24.569Z,4.10
2023-01-13T11:34:00.254Z,4.80
2023-01-13T11:36:37.663Z,3.40
2023-01-13T11:39:20.789Z,4.90
2023-01-13T11:42:11.591Z,4.90
2023-01-13T11:49:48.657Z,2.50
2023-01-13T11:52:25.249Z,4.20
2023-01-13T11:55:27.417Z,3.10
2023-01-13T11:58:12.412Z,3.60
2023-01-13T12:01:00.645Z,4.70
2023-01-13T12:03:39.323Z,4.80
2023-01-13T12:06:24.041Z,4.00
2023-01-13T12:09:33.797Z,5.40
2023-01-13T12:15:31.594Z,3.20
2023-01-13T12:18:15.622Z,3.50
2023-01-13T12:20:58.646Z,3.10
2023-01-13T12:23:36.559Z,4.00
2023-01-13T12:26:11.668Z,5.50
2023-01-13T12:28:50.139Z,4.10
2023-01-13T12:31:23.132Z,4.10
2023-01-13T12:34:09.610Z,5.00
2023-01-13T12:36:52.835Z,5.10
2023-01-13T12:39:31.131Z,3.10
2023-01-13T12:45:29.682Z,4.60
2023-01-13T12:48:01.444Z,4.10
2023-01-13T12:51:00.633Z,4.70
2023-01-13T12:53:40.849Z,4.30
2023-01-13T12:56:44.658Z,5.00
2023-01-13T12:59:50.005Z,5.60
2023-01-13T13:02:35.397Z,6.00
2023-01-13T13:05:49.280Z,3.20
2023-01-13T13:08:38.927Z,5.30
2023-01-13T13:11:52.410Z,3.20
2023-01-13T13:14:53.637Z,3.70
2023-01-13T13:17:45.332Z,5.70
2023-01-13T13:20:54.892Z,4.40
2023-01-13T13:23:48.089Z,5.80
2023-01-13T13:26:30.867Z,4.70
2023-01-13T13:29:19.219Z,3.20
2023-01-13T13:32:12.278Z,3.90
2023-01-13T13:34:49.583Z,4.60
2023-01-13T13:37:33.837Z,3.50
2023-01-13T13:40:30.450Z,4.90
2023-01-13T13:43:18.798Z,5.70
2023-01-13T13:46:11.845Z,3.60
2023-01-13T13:48:51.029Z,4.10
2023-01-13T13:51:29.245Z,4.50
2023-01-13T13:56:41.421Z,5.20
2023-01-13T13:59:15.245Z,5.80
2023-01-13T14:01:51.636Z,4.30
2023-01-13T14:04:25.939Z,4.40
2023-01-13T14:06:58.802Z,5.20
2023-01-13T14:09:39.840Z,4.80
2023-01-13T14:12:19.787Z,6.20
2023-01-13T14:14:51.848Z,4.20
2023-01-13T14:17:26.256Z,5.00
2023-01-13T14:20:01.618Z,7.10
2023-01-13T14:22:32.153Z,5.10
2023-01-13T14:25:02.658Z,6.50
2023-01-13T14:27:35.325Z,5.40
2023-01-13T14:30:08.174Z,4.50
2023-01-13T14:32:40.064Z,7.60
2023-01-13T14:35:16.669Z,4.50
2023-01-13T14:37:49.097Z,3.30
2023-01-13T14:40:46.952Z,4.70
2023-01-13T14:43:23.894Z,3.80
2023-01-13T14:46:00.167Z,3.60
2023-01-13T14:48:35.997Z,6.40
2023-01-13T14:51:10.917Z,3.00
2023-01-13T14:53:46.269Z,3.20
2023-01-13T14:56:50.924Z,3.70
2023-01-13T14:59:42.509Z,3.70
2023-01-13T15:02:46.266Z,4.60
2023-01-13T15:05:37.957Z,3.30
2023-01-13T15:08:38.709Z,5.50
2023-01-13T15:11:19.253Z,4.50
2023-01-13T15:13:57.647Z,3.80
2023-01-13T15:18:58.962Z,3.90
2023-01-13T15:21:29.424Z,4.30
2023-01-13T15:24:00.869Z,4.60
2023-01-13T15:26:34.224Z,4.90
2023-01-13T15:29:11.017Z,3.40
2023-01-13T15:31:41.472Z,4.00
2023-01-13T15:34:11.883Z,5.40
2023-01-13T15:36:42.375Z,5.10
2023-01-13T15:39:14.869Z,4.00
2023-01-13T15:42:02.578Z,4.70
2023-01-13T15:44:50.566Z,4.30
2023-01-13T15:47:23.973Z,5.10
2023-01-13T15:49:55.147Z,5.70
2023-01-13T15:52:27.718Z,5.00
2023-01-13T15:54:58.144Z,5.10
2023-01-13T15:57:30.310Z,5.90
2023-01-13T16:00:05.475Z,5.80
2023-01-13T16:02:37.139Z,5.60
2023-01-13T16:05:09.142Z,6.20
2023-01-13T16:07:40.216Z,5.90
2023-01-13T16:10:19.959Z,6.60
2023-01-13T16:12:50.491Z,9.50
2023-01-13T16:15:24.865Z,9.50
2023-01-13T16:17:58.475Z,10.10
2023-01-13T16:20:29.950Z,13.50
2023-01-13T16:23:00.450Z,10.90
2023-01-13T16:25:30.884Z,10.60
2023-01-13T16:28:01.794Z,8.50
2023-01-13T16:30:34.260Z,8.70
2023-01-13T16:33:05.239Z,8.50
2023-01-13T16:35:35.707Z,12.90
2023-01-13T16:38:26.233Z,10.60
2023-01-13T16:40:59.636Z,9.80
2023-01-13T16:43:30.178Z,11.50
2023-01-13T16:46:00.664Z,14.80
2023-01-13T16:48:31.177Z,15.90
2023-01-13T16:51:02.682Z,13.10
2023-01-13T16:53:33.122Z,13.80
2023-01-13T16:56:03.615Z,11.40
2023-01-13T16:58:34.043Z,9.10
2023-01-13T17:01:06.453Z,9.20
2023-01-13T17:03:38.361Z,11.90
2023-01-13T17:08:39.485Z,13.00
2023-01-13T17:11:10.018Z,14.20
2023-01-13T17:13:40.567Z,13.30
2023-01-13T17:16:19.746Z,13.60
2023-01-13T17:18:50.335Z,15.20
2023-01-13T17:21:21.384Z,12.60
2023-01-13T17:23:52.722Z,14.10
2023-01-13T17:26:37.097Z,12.70
2023-01-13T17:29:13.345Z,12.60
2023-01-13T17:31:44.149Z,11.40
2023-01-13T17:34:15.661Z,12.70
2023-01-13T17:36:46.097Z,13.50
2023-01-13T17:39:19.544Z,12.90
2023-01-13T17:41:51.215Z,11.60
2023-01-13T17:44:23.329Z,13.70
2023-01-13T17:49:23.155Z,12.40
2023-01-13T17:51:53.619Z,10.30
2023-01-13T17:54:24.437Z,11.90
2023-01-13T17:56:56.639Z,9.10
2023-01-13T17:59:27.064Z,10.10
2023-01-13T18:01:57.605Z,12.30
2023-01-13T18:04:28.883Z,12.50
2023-01-13T18:06:59.432Z,11.00
2023-01-13T18:09:30.313Z,11.10
2023-01-13T18:12:01.157Z,13.40
2023-01-13T18:14:31.681Z,12.60
2023-01-13T18:17:02.163Z,12.80
2023-01-13T18:19:50.307Z,11.80
2023-01-13T18:22:38.717Z,13.50
2023-01-13T18:25:31.725Z,13.30
2023-01-13T18:28:02.779Z,16.50
2023-01-13T18:30:33.262Z,16.80
2023-01-13T18:33:03.773Z,22.10
2023-01-13T18:35:34.225Z,14.90
2023-01-13T18:38:04.707Z,15.70
2023-01-13T18:40:35.121Z,15.80
2023-01-13T18:43:05.600Z,19.80
2023-01-13T18:45:36.003Z,18.60
2023-01-13T18:48:07.855Z,17.50
2023-01-13T18:50:38.381Z,13.50
2023-01-13T18:53:09.088Z,15.00
2023-01-13T18:55:41.184Z,15.70
2023-01-13T19:00:40.583Z,15.70
2023-01-13T19:03:13.039Z,16.50
2023-01-13T19:05:43.996Z,16.70
2023-01-13T19:08:15.767Z,16.80
2023-01-13T19:10:46.712Z,17.40
2023-01-13T19:13:18.473Z,15.90
2023-01-13T19:15:48.934Z,15.40
2023-01-13T19:18:22.108Z,17.00
2023-01-13T19:20:52.815Z,23.20
2023-01-13T19:23:24.316Z,24.70
2023-01-13T19:25:54.882Z,24.80
2023-01-13T19:28:26.347Z,27.80
2023-01-13T19:31:00.176Z,21.90
2023-01-13T19:33:32.868Z,18.30
2023-01-13T19:36:05.305Z,17.90
2023-01-13T19:38:36.879Z,22.50
2023-01-13T19:41:32.714Z,21.90
2023-01-13T19:44:20.641Z,19.10
2023-01-13T19:46:51.212Z,20.60
2023-01-13T19:49:21.705Z,17.00
2023-01-13T19:51:52.186Z,17.90
2023-01-13T19:54:22.692Z,18.30
2023-01-13T19:56:53.210Z,15.70
2023-01-13T19:59:29.148Z,21.60
2023-01-13T20:02:00.630Z,20.90
2023-01-13T20:04:38.412Z,18.50
2023-01-13T20:07:09.743Z,18.50
2023-01-13T20:09:40.683Z,18.60
2023-01-13T20:12:12.675Z,19.70
2023-01-13T20:14:45.189Z,19.60
2023-01-13T20:17:17.936Z,15.20
2023-01-13T20:19:48.461Z,14.70
2023-01-13T20:22:19.090Z,16.10
2023-01-13T20:24:55.017Z,15.20
2023-01-13T20:27:25.831Z,14.50
2023-01-13T20:29:56.394Z,14.50
2023-01-13T20:32:27.164Z,13.40
2023-01-13T20:34:57.611Z,14.20
2023-01-13T20:37:28.481Z,14.60
2023-01-13T20:40:01.655Z,14.30
2023-01-13T20:42:39.796Z,11.60
2023-01-13T20:45:13.280Z,10.60
2023-01-13T20:47:44.186Z,10.40
2023-01-13T20:50:15.691Z,11.20
2023-01-13T20:52:46.450Z,12.80
2023-01-13T20:55:16.965Z,10.80
2023-01-13T20:57:50.146Z,10.70
2023-01-13T21:00:22.557Z,10.00
2023-01-13T21:02:52.988Z,9.70
2023-01-13T21:05:23.471Z,9.60
2023-01-13T21:07:53.903Z,9.50
2023-01-13T21:10:24.383Z,8.00
2023-01-13T21:13:12.265Z,9.30
2023-01-13T21:15:47.104Z,7.10
2023-01-13T21:18:35.325Z,8.10
2023-01-13T21:21:15.520Z,7.40
2023-01-13T21:23:52.694Z,6.50
2023-01-13T21:26:23.648Z,7.80
2023-01-13T21:28:56.962Z,7.70
2023-01-13T21:31:28.472Z,7.70
2023-01-13T21:33:59.806Z,5.60
2023-01-13T21:36:30.893Z,6.60
2023-01-13T21:39:01.676Z,6.30
2023-01-13T21:41:49.499Z,6.50
2023-01-13T21:44:39.989Z,9.10
2023-01-13T21:47:35.150Z,6.40
2023-01-13T21:50:08.955Z,8.30
2023-01-13T21:52:39.662Z,8.60
2023-01-13T21:55:28.579Z,8.20
2023-01-13T21:58:01.031Z,6.30
2023-01-13T22:00:33.093Z,8.00
2023-01-13T22:05:33.725Z,6.10
2023-01-13T22:08:04.874Z,8.40
2023-01-13T22:10:35.320Z,6.40
2023-01-13T22:13:19.839Z,8.00
2023-01-13T22:15:50.524Z,8.60
2023-01-13T22:18:20.968Z,7.00
2023-01-13T22:20:51.655Z,7.70
2023-01-13T22:23:22.184Z,6.40
2023-01-13T22:25:52.613Z,6.10
2023-01-13T22:28:25.394Z,5.00
2023-01-13T22:30:55.844Z,6.80
2023-01-13T22:33:26.249Z,6.60
2023-01-13T22:35:58.178Z,6.90
2023-01-13T22:38:28.650Z,7.80
2023-01-13T22:41:00.462Z,6.80
2023-01-13T22:43:31.500Z,6.60
2023-01-13T22:46:03.655Z,8.30
2023-01-13T22:51:08.793Z,5.30
2023-01-13T22:53:40.217Z,5.90
2023-01-13T22:56:16.582Z,5.00
2023-01-13T22:58:49.036Z,6.40
2023-01-13T23:01:19.841Z,5.90
2023-01-13T23:03:51.013Z,8.70
2023-01-13T23:06:23.225Z,8.60
2023-01-13T23:08:53.867Z,5.80
2023-01-13T23:11:26.715Z,5.80
2023-01-13T23:14:02.255Z,6.80
2023-01-13T23:16:34.908Z,6.30
2023-01-13T23:19:06.214Z,7.10
2023-01-13T23:21:38.260Z,6.60
2023-01-13T23:24:10.823Z,5.50
2023-01-13T23:26:41.347Z,8.90
2023-01-13T23:29:14.253Z,6.80
2023-01-13T23:31:44.680Z,5.50
2023-01-13T23:34:15.215Z,6.80
2023-01-13T23:36:45.949Z,6.60
2023-01-13T23:39:16.387Z,6.20
2023-01-13T23:41:47.004Z,4.80
2023-01-13T23:44:17.480Z,4.60
2023-01-13T23:46:47.930Z,5.90
2023-01-13T23:49:18.355Z,5.10
2023-01-13T23:51:52.529Z,5.00
2023-01-13T23:54:22.984Z,6.60
2023-01-13T23:56:53.841Z,4.00
2023-01-13T23:59:24.677Z,5.80
